createdAt,value
2019-06-01T00:00:29.399Z,20.59
2019-06-01T00:01:50.453Z,20.67
2019-06-01T00:02:29.450Z,20.64
2019-06-01T00:03:29.480Z,20.60
2019-06-01T00:04:29.514Z,20.64
2019-06-01T00:05:29.538Z,20.64
2019-06-01T00:06:29.552Z,20.67
2019-06-01T00:07:50.596Z,20.68
2019-06-01T00:08:29.612Z,20.63
2019-06-01T00:09:29.664Z,20.58
2019-06-01T00:10:29.664Z,20.68
2019-06-01T00:11:29.688Z,20.63
2019-06-01T00:12:29.707Z,20.60
2019-06-01T00:13:50.764Z,20.56
2019-06-01T00:14:29.769Z,20.55
2019-06-01T00:15:29.794Z,20.53
2019-06-01T00:16:29.814Z,20.49
2019-06-01T00:17:29.868Z,20.58
2019-06-01T00:18:29.875Z,20.55
2019-06-01T00:19:50.922Z,20.56
2019-06-01T00:20:29.936Z,20.52
2019-06-01T00:21:29.951Z,20.58
2019-06-01T00:22:29.988Z,20.52
2019-06-01T00:23:30.031Z,20.46
2019-06-01T00:24:30.040Z,20.50
2019-06-01T00:25:51.094Z,20.56
2019-06-01T00:26:30.088Z,20.52
2019-06-01T00:27:30.118Z,20.48
2019-06-01T00:28:30.148Z,20.42
2019-06-01T00:29:30.164Z,20.40
2019-06-01T00:30:30.213Z,20.40
2019-06-01T00:31:52.116Z,20.40
2019-06-01T00:32:30.254Z,20.37
2019-06-01T00:33:30.272Z,20.42
2019-06-01T00:34:30.314Z,20.46
2019-06-01T00:35:30.346Z,20.42
2019-06-01T00:36:30.364Z,20.34
2019-06-01T00:37:51.785Z,20.40
2019-06-01T00:38:30.408Z,20.39
2019-06-01T00:39:30.451Z,20.37
2019-06-01T00:40:30.477Z,20.42
2019-06-01T00:41:30.500Z,20.36
2019-06-01T00:42:30.514Z,20.33
2019-06-01T00:43:52.501Z,20.29
2019-06-01T00:44:31.336Z,20.29
2019-06-01T00:45:30.595Z,20.36
2019-06-01T00:46:30.640Z,20.39
2019-06-01T00:47:30.670Z,20.29
2019-06-01T00:48:30.691Z,20.26
2019-06-01T00:49:52.953Z,20.30
2019-06-01T00:50:30.732Z,20.27
2019-06-01T00:51:30.783Z,20.24
2019-06-01T00:52:30.786Z,20.27
2019-06-01T00:53:30.813Z,20.27
2019-06-01T00:54:30.837Z,20.29
2019-06-01T00:55:51.893Z,20.26
2019-06-01T00:56:30.905Z,20.24
2019-06-01T00:57:30.924Z,20.32
2019-06-01T00:58:31.824Z,20.19
2019-06-01T00:59:31.423Z,20.21
2019-06-01T01:00:43.340Z,20.15
2019-06-01T01:01:52.410Z,20.21
2019-06-01T01:02:31.058Z,20.21
2019-06-01T01:03:31.080Z,20.26
2019-06-01T01:04:31.093Z,20.14
2019-06-01T01:05:31.128Z,20.24
2019-06-01T01:06:31.153Z,20.27
2019-06-01T01:07:53.534Z,20.18
2019-06-01T01:08:31.204Z,20.12
2019-06-01T01:09:31.238Z,20.14
2019-06-01T01:10:31.261Z,20.12
2019-06-01T01:11:31.291Z,20.10
2019-06-01T01:12:31.331Z,20.08
2019-06-01T01:13:53.553Z,20.10
2019-06-01T01:14:31.371Z,20.12
2019-06-01T01:15:31.433Z,20.12
2019-06-01T01:16:31.475Z,20.12
2019-06-01T01:17:31.450Z,20.10
2019-06-01T01:18:31.489Z,20.11
2019-06-01T01:19:52.523Z,20.14
2019-06-01T01:20:31.530Z,20.07
2019-06-01T01:21:31.553Z,20.12
2019-06-01T01:22:31.585Z,20.12
2019-06-01T01:23:31.642Z,20.14
2019-06-01T01:24:31.657Z,19.97
2019-06-01T01:25:52.696Z,20.14
2019-06-01T01:26:31.695Z,20.12
2019-06-01T01:27:31.725Z,20.12
2019-06-01T01:28:31.751Z,20.11
2019-06-01T01:29:31.773Z,20.14
2019-06-01T01:30:31.799Z,20.04
2019-06-01T01:31:53.227Z,20.02
2019-06-01T01:32:31.857Z,19.99
2019-06-01T01:33:31.874Z,19.99
2019-06-01T01:34:31.940Z,20.03
2019-06-01T01:35:31.931Z,20.02
2019-06-01T01:36:31.954Z,20.00
2019-06-01T01:37:53.876Z,19.97
2019-06-01T01:38:32.009Z,19.99
2019-06-01T01:39:32.035Z,19.94
2019-06-01T01:40:32.067Z,19.94
2019-06-01T01:41:32.099Z,19.96
2019-06-01T01:42:32.120Z,19.89
2019-06-01T01:43:54.496Z,19.85
2019-06-01T01:44:32.175Z,19.96
2019-06-01T01:45:32.206Z,19.92
2019-06-01T01:46:32.221Z,19.92
2019-06-01T01:47:32.266Z,19.89
2019-06-01T01:48:32.301Z,19.87
2019-06-01T01:49:54.058Z,19.89
2019-06-01T01:50:32.339Z,19.85
2019-06-01T01:51:32.367Z,19.94
2019-06-01T01:52:32.405Z,19.92
2019-06-01T01:53:32.415Z,19.87
2019-06-01T01:54:32.449Z,19.89
2019-06-01T01:55:53.510Z,19.89
2019-06-01T01:56:32.490Z,19.85
2019-06-01T01:57:32.522Z,19.81
2019-06-01T01:58:32.551Z,19.85
2019-06-01T01:59:32.565Z,19.90
2019-06-01T02:00:32.596Z,19.82
2019-06-01T02:01:54.640Z,19.85
2019-06-01T02:02:32.677Z,19.85
2019-06-01T02:03:32.695Z,19.81
2019-06-01T02:04:32.698Z,19.81
2019-06-01T02:05:32.736Z,19.84
2019-06-01T02:06:32.751Z,19.79
2019-06-01T02:07:54.871Z,19.77
2019-06-01T02:08:32.812Z,19.81
2019-06-01T02:09:32.852Z,19.82
2019-06-01T02:10:32.876Z,19.79
2019-06-01T02:11:32.883Z,19.75
2019-06-01T02:12:32.918Z,19.74
2019-06-01T02:13:53.986Z,19.77
2019-06-01T02:14:32.997Z,19.75
2019-06-01T02:15:33.012Z,19.87
2019-06-01T02:16:33.052Z,19.79
2019-06-01T02:17:33.057Z,19.84
2019-06-01T02:18:33.070Z,19.79
2019-06-01T02:19:54.154Z,19.82
2019-06-01T02:20:33.124Z,19.81
2019-06-01T02:21:33.218Z,19.75
2019-06-01T02:22:33.188Z,19.78
2019-06-01T02:23:33.208Z,19.77
2019-06-01T02:24:33.258Z,19.77
2019-06-01T02:25:54.853Z,19.81
2019-06-01T02:26:33.295Z,19.74
2019-06-01T02:27:33.340Z,19.74
2019-06-01T02:28:33.352Z,19.72
2019-06-01T02:29:33.362Z,19.72
2019-06-01T02:30:33.390Z,19.71
2019-06-01T02:31:54.726Z,19.75
2019-06-01T02:32:33.444Z,19.77
2019-06-01T02:33:33.475Z,19.71
2019-06-01T02:34:33.500Z,19.79
2019-06-01T02:35:33.550Z,19.78
2019-06-01T02:36:33.550Z,19.67
2019-06-01T02:37:56.318Z,19.67
2019-06-01T02:38:33.604Z,19.70
2019-06-01T02:39:33.631Z,19.78
2019-06-01T02:40:33.661Z,19.74
2019-06-01T02:41:33.687Z,19.64
2019-06-01T02:42:33.711Z,19.74
2019-06-01T02:43:54.851Z,19.64
2019-06-01T02:44:33.782Z,19.66
2019-06-01T02:45:33.784Z,19.71
2019-06-01T02:46:35.726Z,19.67
2019-06-01T02:47:33.843Z,19.66
2019-06-01T02:48:33.879Z,19.72
2019-06-01T02:49:55.635Z,19.70
2019-06-01T02:50:33.925Z,19.74
2019-06-01T02:51:33.969Z,19.70
2019-06-01T02:52:33.998Z,19.67
2019-06-01T02:53:34.021Z,19.67
2019-06-01T02:54:34.061Z,19.70
2019-06-01T02:55:55.801Z,19.66
2019-06-01T02:56:34.101Z,19.64
2019-06-01T02:57:34.117Z,19.63
2019-06-01T02:58:34.149Z,19.71
2019-06-01T02:59:34.163Z,19.63
2019-06-01T03:00:34.192Z,19.70
2019-06-01T03:01:58.160Z,19.59
2019-06-01T03:02:34.241Z,19.62
2019-06-01T03:03:34.283Z,19.63
2019-06-01T03:04:34.301Z,19.63
2019-06-01T03:05:34.864Z,19.64
2019-06-01T03:06:34.363Z,19.64
2019-06-01T03:07:55.419Z,19.64
2019-06-01T03:08:34.423Z,19.64
2019-06-01T03:09:34.433Z,19.59
2019-06-01T03:10:35.347Z,19.62
2019-06-01T03:11:34.479Z,19.59
2019-06-01T03:12:34.513Z,19.64
2019-06-01T03:13:55.556Z,19.59
2019-06-01T03:14:34.567Z,19.52
2019-06-01T03:15:35.339Z,19.60
2019-06-01T03:16:34.614Z,19.59
2019-06-01T03:17:34.643Z,19.60
2019-06-01T03:18:35.444Z,19.56
2019-06-01T03:19:55.723Z,19.56
2019-06-01T03:20:34.719Z,19.57
2019-06-01T03:21:34.746Z,19.64
2019-06-01T03:22:34.807Z,19.64
2019-06-01T03:23:34.799Z,19.47
2019-06-01T03:24:34.831Z,19.47
2019-06-01T03:25:55.879Z,19.44
2019-06-01T03:26:34.887Z,19.24
2019-06-01T03:27:34.907Z,19.24
2019-06-01T03:28:34.929Z,19.08
2019-06-01T03:29:34.963Z,19.09
2019-06-01T03:30:34.988Z,18.88
2019-06-01T03:31:56.031Z,18.92
2019-06-01T03:32:37.304Z,19.01
2019-06-01T03:33:35.068Z,19.11
2019-06-01T03:34:35.107Z,18.91
2019-06-01T03:35:35.121Z,18.83
2019-06-01T03:36:35.841Z,18.85
2019-06-01T03:37:56.190Z,18.89
2019-06-01T03:38:35.193Z,18.98
2019-06-01T03:39:35.231Z,19.12
2019-06-01T03:40:35.242Z,18.92
2019-06-01T03:41:35.283Z,18.86
2019-06-01T03:42:35.301Z,18.92
2019-06-01T03:43:56.349Z,18.96
2019-06-01T03:44:35.363Z,19.16
2019-06-01T03:45:35.375Z,18.98
2019-06-01T03:46:35.419Z,18.92
2019-06-01T03:47:35.438Z,18.92
2019-06-01T03:48:35.459Z,18.85
2019-06-01T03:49:56.496Z,18.67
2019-06-01T03:50:35.505Z,18.85
2019-06-01T03:51:35.552Z,18.79
2019-06-01T03:52:35.559Z,18.82
2019-06-01T03:53:35.612Z,18.83
2019-06-01T03:54:35.619Z,18.74
2019-06-01T03:55:56.683Z,18.73
2019-06-01T03:56:35.669Z,18.66
2019-06-01T03:57:35.699Z,18.71
2019-06-01T03:58:35.728Z,18.79
2019-06-01T03:59:35.743Z,18.68
2019-06-01T04:00:35.776Z,18.82
2019-06-01T04:01:56.812Z,18.82
2019-06-01T04:02:35.842Z,18.89
2019-06-01T04:03:35.863Z,18.88
2019-06-01T04:04:35.883Z,18.83
2019-06-01T04:05:35.938Z,18.82
2019-06-01T04:06:35.981Z,18.66
2019-06-01T04:07:56.985Z,18.63
2019-06-01T04:08:35.984Z,18.74
2019-06-01T04:09:36.015Z,18.81
2019-06-01T04:10:36.057Z,18.82
2019-06-01T04:11:36.067Z,18.81
2019-06-01T04:12:36.089Z,18.82
2019-06-01T04:13:57.144Z,18.71
2019-06-01T04:14:36.141Z,18.71
2019-06-01T04:15:36.168Z,18.71
2019-06-01T04:16:36.191Z,18.63
2019-06-01T04:17:36.218Z,18.83
2019-06-01T04:18:36.265Z,18.83
2019-06-01T04:19:57.312Z,18.74
2019-06-01T04:20:36.291Z,18.68
2019-06-01T04:21:36.324Z,18.81
2019-06-01T04:22:36.356Z,18.83
2019-06-01T04:23:36.586Z,18.78
2019-06-01T04:24:36.442Z,18.78
2019-06-01T04:25:57.452Z,18.89
2019-06-01T04:26:36.450Z,19.01
2019-06-01T04:27:36.479Z,18.82
2019-06-01T04:28:36.498Z,18.81
2019-06-01T04:29:36.536Z,18.76
2019-06-01T04:30:36.555Z,18.82
2019-06-01T04:31:57.614Z,18.94
2019-06-01T04:32:49.376Z,18.83
2019-06-01T04:33:36.638Z,18.94
2019-06-01T04:34:36.692Z,18.86
2019-06-01T04:35:36.690Z,18.89
2019-06-01T04:36:36.737Z,18.81
2019-06-01T04:37:57.764Z,18.83
2019-06-01T04:38:36.780Z,18.64
2019-06-01T04:39:36.797Z,18.74
2019-06-01T04:40:36.826Z,18.66
2019-06-01T04:41:36.856Z,18.68
2019-06-01T04:42:36.874Z,18.81
2019-06-01T04:43:57.913Z,18.82
2019-06-01T04:44:36.942Z,18.91
2019-06-01T04:45:36.960Z,18.85
2019-06-01T04:46:36.998Z,18.88
2019-06-01T04:47:37.004Z,18.92
2019-06-01T04:48:37.064Z,18.92
2019-06-01T04:49:58.086Z,18.98
2019-06-01T04:50:37.099Z,18.89
2019-06-01T04:51:37.115Z,19.07
2019-06-01T04:52:37.146Z,18.97
2019-06-01T04:53:37.204Z,18.97
2019-06-01T04:54:37.196Z,18.94
2019-06-01T04:55:58.235Z,19.05
2019-06-01T04:56:37.255Z,19.05
2019-06-01T04:57:37.272Z,19.01
2019-06-01T04:58:37.328Z,19.12
2019-06-01T04:59:37.985Z,19.09
2019-06-01T05:00:37.357Z,19.24
2019-06-01T05:01:58.426Z,19.27
2019-06-01T05:02:37.413Z,19.27
2019-06-01T05:03:37.425Z,19.30
2019-06-01T05:04:37.538Z,19.19
2019-06-01T05:05:37.495Z,19.24
2019-06-01T05:06:37.698Z,19.22
2019-06-01T05:07:58.549Z,19.29
2019-06-01T05:08:37.558Z,19.30
2019-06-01T05:09:37.663Z,19.34
2019-06-01T05:10:37.615Z,19.47
2019-06-01T05:11:37.661Z,19.47
2019-06-01T05:12:37.668Z,19.56
2019-06-01T05:13:58.704Z,19.62
2019-06-01T05:14:37.721Z,19.71
2019-06-01T05:15:37.811Z,19.64
2019-06-01T05:16:37.765Z,19.70
2019-06-01T05:17:37.797Z,19.66
2019-06-01T05:18:37.826Z,19.64
2019-06-01T05:19:58.855Z,19.71
2019-06-01T05:20:37.890Z,19.63
2019-06-01T05:21:37.910Z,19.70
2019-06-01T05:22:37.916Z,19.75
2019-06-01T05:23:37.964Z,19.82
2019-06-01T05:24:38.001Z,19.82
2019-06-01T05:25:59.037Z,19.89
2019-06-01T05:26:38.032Z,19.96
2019-06-01T05:27:38.094Z,19.85
2019-06-01T05:28:38.099Z,19.92
2019-06-01T05:29:38.108Z,19.90
2019-06-01T05:30:38.180Z,19.92
2019-06-01T05:31:59.213Z,19.87
2019-06-01T05:32:38.188Z,19.93
2019-06-01T05:33:38.229Z,19.89
2019-06-01T05:34:38.246Z,19.85
2019-06-01T05:35:38.288Z,19.84
2019-06-01T05:36:38.304Z,19.85
2019-06-01T05:37:59.343Z,19.89
2019-06-01T05:38:38.396Z,19.85
2019-06-01T05:39:38.428Z,19.74
2019-06-01T05:40:38.445Z,19.85
2019-06-01T05:41:38.465Z,19.92
2019-06-01T05:42:38.504Z,19.90
2019-06-01T05:43:59.505Z,19.93
2019-06-01T05:44:38.522Z,20.08
2019-06-01T05:45:38.529Z,19.99
2019-06-01T05:46:38.622Z,20.00
2019-06-01T05:47:38.602Z,20.00
2019-06-01T05:48:38.639Z,20.02
2019-06-01T05:49:59.663Z,20.14
2019-06-01T05:50:38.676Z,20.00
2019-06-01T05:51:38.694Z,19.90
2019-06-01T05:52:38.724Z,19.99
2019-06-01T05:53:38.739Z,19.93
2019-06-01T05:54:38.780Z,20.00
2019-06-01T05:55:59.827Z,20.02
2019-06-01T05:56:38.832Z,19.99
2019-06-01T05:57:38.858Z,20.11
2019-06-01T05:58:38.876Z,20.10
2019-06-01T05:59:38.947Z,20.10
2019-06-01T06:00:38.970Z,20.10
2019-06-01T06:01:59.970Z,20.03
2019-06-01T06:02:38.983Z,20.15
2019-06-01T06:03:40.627Z,20.10
2019-06-01T06:04:39.032Z,20.10
2019-06-01T06:05:39.067Z,20.08
2019-06-01T06:06:39.087Z,20.10
2019-06-01T06:08:00.126Z,20.12
2019-06-01T06:08:39.141Z,20.17
2019-06-01T06:09:39.222Z,20.10
2019-06-01T06:10:39.203Z,20.24
2019-06-01T06:11:39.224Z,20.29
2019-06-01T06:12:39.243Z,20.26
2019-06-01T06:14:00.405Z,20.21
2019-06-01T06:14:39.312Z,20.22
2019-06-01T06:15:39.329Z,20.24
2019-06-01T06:16:39.408Z,20.15
2019-06-01T06:17:39.380Z,20.18
2019-06-01T06:18:39.412Z,20.18
2019-06-01T06:20:00.452Z,20.19
2019-06-01T06:20:39.455Z,20.12
2019-06-01T06:21:39.499Z,20.14
2019-06-01T06:22:41.270Z,20.11
2019-06-01T06:23:39.559Z,20.10
2019-06-01T06:24:39.563Z,20.11
2019-06-01T06:26:00.640Z,20.27
2019-06-01T06:26:39.643Z,20.22
2019-06-01T06:27:39.664Z,20.32
2019-06-01T06:28:39.697Z,20.32
2019-06-01T06:30:03.501Z,20.36
2019-06-01T06:30:39.742Z,20.44
2019-06-01T06:32:00.778Z,20.40
2019-06-01T06:32:39.790Z,20.34
2019-06-01T06:33:53.339Z,20.29
2019-06-01T06:34:39.848Z,20.40
2019-06-01T06:35:39.892Z,20.26
2019-06-01T06:36:39.922Z,20.34
2019-06-01T06:38:00.954Z,20.37
2019-06-01T06:38:39.937Z,20.37
2019-06-01T06:39:39.969Z,20.44
2019-06-01T06:40:40.064Z,20.32
2019-06-01T06:41:40.039Z,20.22
2019-06-01T06:42:40.064Z,20.36
2019-06-01T06:44:01.092Z,20.34
2019-06-01T06:44:40.118Z,20.37
2019-06-01T06:45:40.131Z,20.60
2019-06-01T06:46:40.152Z,20.53
2019-06-01T06:47:40.172Z,20.52
2019-06-01T06:48:40.200Z,20.60
2019-06-01T06:50:01.258Z,20.63
2019-06-01T06:50:40.275Z,20.70
2019-06-01T06:51:40.298Z,20.82
2019-06-01T06:52:40.307Z,20.82
2019-06-01T06:53:40.335Z,20.83
2019-06-01T06:54:40.372Z,20.80
2019-06-01T06:56:01.422Z,20.92
2019-06-01T06:56:40.404Z,20.96
2019-06-01T06:57:40.444Z,21.01
2019-06-01T06:58:40.485Z,20.85
2019-06-01T06:59:40.502Z,20.85
2019-06-01T07:00:40.536Z,20.82
2019-06-01T07:02:01.575Z,21.04
2019-06-01T07:02:40.581Z,21.05
2019-06-01T07:03:40.603Z,21.04
2019-06-01T07:04:40.620Z,21.10
2019-06-01T07:05:40.648Z,21.08
2019-06-01T07:06:40.692Z,21.15
2019-06-01T07:08:01.729Z,21.25
2019-06-01T07:08:40.736Z,21.35
2019-06-01T07:09:40.767Z,21.25
2019-06-01T07:10:40.801Z,21.20
2019-06-01T07:11:40.854Z,21.22
2019-06-01T07:12:40.850Z,21.20
2019-06-01T07:14:01.901Z,21.33
2019-06-01T07:14:40.915Z,21.29
2019-06-01T07:15:40.925Z,21.37
2019-06-01T07:16:40.945Z,21.33
2019-06-01T07:17:40.977Z,21.41
2019-06-01T07:18:41.006Z,21.53
2019-06-01T07:20:02.053Z,21.58
2019-06-01T07:20:41.070Z,21.69
2019-06-01T07:21:41.103Z,21.65
2019-06-01T07:22:41.099Z,21.69
2019-06-01T07:23:41.143Z,21.59
2019-06-01T07:24:41.179Z,21.69
2019-06-01T07:26:02.226Z,21.74
2019-06-01T07:26:41.224Z,21.70
2019-06-01T07:27:41.251Z,21.69
2019-06-01T07:28:44.451Z,21.78
2019-06-01T07:29:41.287Z,21.75
2019-06-01T07:30:50.372Z,21.69
2019-06-01T07:32:02.369Z,21.81
2019-06-01T07:32:41.378Z,21.80
2019-06-01T07:33:41.405Z,21.89
2019-06-01T07:34:42.777Z,21.92
2019-06-01T07:35:41.447Z,21.92
2019-06-01T07:36:41.506Z,21.85
2019-06-01T07:38:02.547Z,21.94
2019-06-01T07:38:41.549Z,22.04
2019-06-01T07:39:41.573Z,22.00
2019-06-01T07:40:41.607Z,22.07
2019-06-01T07:41:41.637Z,22.08
2019-06-01T07:42:41.667Z,22.06
2019-06-01T07:44:02.704Z,22.00
2019-06-01T07:44:41.743Z,22.14
2019-06-01T07:45:41.722Z,22.12
2019-06-01T07:46:41.761Z,22.07
2019-06-01T07:47:41.801Z,22.12
2019-06-01T07:48:41.811Z,22.07
2019-06-01T07:50:02.940Z,22.14
2019-06-01T07:50:41.865Z,22.08
2019-06-01T07:51:41.909Z,22.03
2019-06-01T07:52:41.934Z,21.94
2019-06-01T07:53:41.937Z,22.14
2019-06-01T07:54:41.983Z,22.15
2019-06-01T07:56:03.013Z,22.15
2019-06-01T07:56:42.036Z,22.15
2019-06-01T07:57:43.770Z,22.28
2019-06-01T07:58:42.078Z,22.31
2019-06-01T07:59:42.123Z,22.38
2019-06-01T08:00:42.128Z,22.37
2019-06-01T08:02:03.216Z,22.38
2019-06-01T08:02:42.202Z,22.44
2019-06-01T08:03:42.224Z,22.68
2019-06-01T08:04:53.438Z,22.89
2019-06-01T08:05:42.265Z,22.96
2019-06-01T08:06:45.664Z,22.93
2019-06-01T08:08:03.348Z,22.88
2019-06-01T08:08:42.360Z,22.71
2019-06-01T08:09:42.383Z,22.84
2019-06-01T08:10:42.408Z,22.80
2019-06-01T08:11:42.454Z,22.89
2019-06-01T08:12:42.473Z,22.83
2019-06-01T08:14:03.529Z,22.88
2019-06-01T08:14:42.515Z,22.88
2019-06-01T08:15:42.546Z,22.93
2019-06-01T08:16:42.588Z,22.96
2019-06-01T08:17:42.604Z,22.98
2019-06-01T08:18:42.636Z,23.01
2019-06-01T08:20:03.677Z,23.07
2019-06-01T08:20:42.785Z,23.10
2019-06-01T08:21:42.725Z,23.18
2019-06-01T08:22:42.732Z,23.13
2019-06-01T08:23:42.774Z,23.17
2019-06-01T08:24:42.803Z,23.17
2019-06-01T08:26:03.874Z,23.17
2019-06-01T08:26:42.856Z,23.17
2019-06-01T08:27:42.872Z,23.14
2019-06-01T08:28:42.898Z,23.26
2019-06-01T08:29:42.930Z,23.11
2019-06-01T08:30:42.948Z,23.16
2019-06-01T08:32:03.998Z,23.25
2019-06-01T08:32:43.012Z,23.10
2019-06-01T08:33:43.048Z,23.29
2019-06-01T08:34:43.060Z,23.29
2019-06-01T08:35:43.110Z,23.26
2019-06-01T08:36:43.144Z,23.32
2019-06-01T08:38:04.173Z,23.39
2019-06-01T08:38:43.173Z,23.42
2019-06-01T08:39:43.198Z,23.40
2019-06-01T08:40:43.234Z,23.52
2019-06-01T08:41:43.259Z,23.54
2019-06-01T08:42:43.288Z,23.55
2019-06-01T08:44:04.347Z,23.69
2019-06-01T08:44:43.356Z,23.77
2019-06-01T08:45:43.373Z,23.71
2019-06-01T08:46:43.416Z,23.67
2019-06-01T08:47:43.424Z,23.77
2019-06-01T08:48:43.434Z,23.77
2019-06-01T08:50:04.496Z,23.89
2019-06-01T08:50:46.014Z,24.07
2019-06-01T08:51:43.550Z,24.00
2019-06-01T08:52:43.554Z,24.03
2019-06-01T08:53:43.584Z,23.99
2019-06-01T08:54:43.604Z,24.03
2019-06-01T08:56:04.665Z,24.07
2019-06-01T08:56:43.653Z,24.09
2019-06-01T08:57:43.700Z,24.07
2019-06-01T08:58:43.734Z,24.07
2019-06-01T08:59:43.754Z,24.04
2019-06-01T09:00:43.785Z,24.06
2019-06-01T09:02:04.834Z,24.16
2019-06-01T09:02:43.850Z,24.18
2019-06-01T09:03:46.782Z,24.28
2019-06-01T09:04:43.884Z,24.36
2019-06-01T09:05:43.919Z,24.53
2019-06-01T09:06:43.936Z,24.69
2019-06-01T09:08:04.995Z,24.58
2019-06-01T09:08:43.992Z,24.50
2019-06-01T09:09:44.024Z,24.26
2019-06-01T09:10:44.059Z,24.13
2019-06-01T09:11:44.079Z,24.14
2019-06-01T09:12:44.107Z,24.09
2019-06-01T09:14:05.159Z,24.18
2019-06-01T09:14:44.157Z,24.25
2019-06-01T09:15:44.198Z,24.29
2019-06-01T09:16:44.225Z,24.43
2019-06-01T09:17:44.258Z,24.29
2019-06-01T09:18:44.280Z,24.34
2019-06-01T09:20:05.343Z,24.43
2019-06-01T09:20:44.338Z,24.58
2019-06-01T09:21:44.417Z,24.65
2019-06-01T09:22:47.917Z,24.78
2019-06-01T09:23:44.420Z,24.79
2019-06-01T09:24:44.463Z,24.79
2019-06-01T09:26:05.499Z,24.96
2019-06-01T09:26:44.495Z,24.96
2019-06-01T09:27:44.541Z,24.81
2019-06-01T09:28:44.563Z,24.75
2019-06-01T09:29:44.885Z,24.81
2019-06-01T09:30:44.628Z,24.82
2019-06-01T09:32:09.730Z,24.88
2019-06-01T09:32:44.674Z,24.85
2019-06-01T09:33:44.698Z,24.94
2019-06-01T09:34:44.727Z,25.18
2019-06-01T09:35:54.541Z,25.30
2019-06-01T09:36:44.773Z,25.31
2019-06-01T09:38:05.830Z,25.12
2019-06-01T09:38:45.567Z,25.04
2019-06-01T09:39:44.866Z,25.01
2019-06-01T09:40:44.917Z,24.86
2019-06-01T09:41:44.944Z,24.79
2019-06-01T09:42:44.958Z,24.89
2019-06-01T09:44:06.009Z,25.09
2019-06-01T09:44:44.998Z,25.12
2019-06-01T09:45:45.030Z,25.37
2019-06-01T09:46:45.094Z,25.40
2019-06-01T09:47:45.370Z,25.37
2019-06-01T09:48:45.131Z,25.40
2019-06-01T09:50:06.164Z,25.36
2019-06-01T09:50:45.180Z,25.25
2019-06-01T09:51:45.222Z,25.37
2019-06-01T09:52:45.230Z,25.48
2019-06-01T09:53:45.270Z,25.26
2019-06-01T09:54:45.331Z,25.24
2019-06-01T09:56:06.336Z,25.52
2019-06-01T09:56:45.355Z,25.62
2019-06-01T09:57:45.387Z,25.93
2019-06-01T09:58:45.436Z,26.03
2019-06-01T09:59:45.444Z,25.95
2019-06-01T10:00:45.464Z,25.98
2019-06-01T10:02:06.514Z,26.34
2019-06-01T10:02:45.534Z,27.04
2019-06-01T10:03:45.565Z,27.43
2019-06-01T10:04:45.592Z,27.35
2019-06-01T10:06:00.915Z,27.48
2019-06-01T10:06:45.730Z,27.81
2019-06-01T10:08:06.687Z,27.35
2019-06-01T10:08:45.697Z,27.64
2019-06-01T10:09:45.713Z,27.79
2019-06-01T10:10:45.777Z,28.49
2019-06-01T10:11:45.786Z,29.07
2019-06-01T10:12:45.810Z,28.41
2019-06-01T10:14:06.915Z,28.50
2019-06-01T10:14:45.879Z,28.59
2019-06-01T10:15:45.914Z,28.80
2019-06-01T10:16:45.961Z,29.16
2019-06-01T10:17:45.963Z,29.83
2019-06-01T10:18:46.004Z,31.17
2019-06-01T10:20:07.048Z,31.92
2019-06-01T10:20:46.060Z,31.63
2019-06-01T10:21:46.100Z,29.50
2019-06-01T10:22:46.107Z,28.55
2019-06-01T10:23:49.445Z,28.70
2019-06-01T10:24:46.165Z,28.83
2019-06-01T10:26:07.242Z,29.24
2019-06-01T10:26:46.236Z,29.27
2019-06-01T10:27:46.272Z,29.58
2019-06-01T10:28:46.270Z,29.62
2019-06-01T10:29:46.305Z,29.92
2019-06-01T10:30:46.365Z,30.23
2019-06-01T10:32:07.450Z,29.86
2019-06-01T10:32:46.452Z,29.28
2019-06-01T10:33:46.444Z,28.60
2019-06-01T10:34:46.482Z,29.20
2019-06-01T10:35:46.505Z,30.31
2019-06-01T10:36:46.529Z,32.37
2019-06-01T10:38:07.582Z,34.37
2019-06-01T10:38:46.613Z,33.17
2019-06-01T10:39:46.647Z,32.08
2019-06-01T10:40:46.674Z,32.34
2019-06-01T10:41:46.704Z,34.60
2019-06-01T10:42:46.718Z,36.20
2019-06-01T10:44:07.777Z,36.53
2019-06-01T10:44:46.780Z,36.63
2019-06-01T10:45:46.812Z,35.47
2019-06-01T10:46:46.852Z,33.88
2019-06-01T10:47:46.883Z,34.59
2019-06-01T10:48:46.914Z,34.33
2019-06-01T10:50:07.961Z,34.11
2019-06-01T10:50:46.973Z,31.85
2019-06-01T10:51:47.011Z,30.67
2019-06-01T10:52:47.043Z,31.05
2019-06-01T10:53:47.060Z,31.22
2019-06-01T10:54:47.106Z,32.20
2019-06-01T10:56:08.160Z,32.73
2019-06-01T10:56:47.163Z,31.63
2019-06-01T10:57:47.193Z,29.77
2019-06-01T10:58:58.983Z,28.52
2019-06-01T10:59:47.264Z,29.12
2019-06-01T11:00:50.978Z,29.62
2019-06-01T11:02:08.349Z,30.81
2019-06-01T11:02:47.359Z,31.63
2019-06-01T11:03:47.389Z,32.61
2019-06-01T11:04:47.410Z,32.48
2019-06-01T11:05:47.450Z,31.26
2019-06-01T11:06:48.862Z,31.79
2019-06-01T11:08:08.544Z,31.59
2019-06-01T11:08:47.555Z,31.73
2019-06-01T11:09:47.583Z,32.19
2019-06-01T11:10:47.620Z,32.37
2019-06-01T11:11:47.643Z,31.95
2019-06-01T11:12:47.689Z,31.35
2019-06-01T11:14:08.762Z,31.04
2019-06-01T11:14:47.751Z,30.95
2019-06-01T11:15:47.783Z,30.20
2019-06-01T11:16:54.878Z,29.94
2019-06-01T11:17:47.846Z,29.43
2019-06-01T11:18:48.168Z,30.06
2019-06-01T11:20:08.934Z,30.49
2019-06-01T11:20:47.939Z,30.56
2019-06-01T11:21:47.981Z,30.03
2019-06-01T11:22:48.021Z,29.96
2019-06-01T11:23:48.033Z,29.10
2019-06-01T11:24:48.082Z,28.71
2019-06-01T11:26:09.111Z,28.35
2019-06-01T11:26:48.124Z,28.25
2019-06-01T11:27:48.163Z,28.38
2019-06-01T11:28:48.200Z,28.25
2019-06-01T11:29:51.398Z,28.20
2019-06-01T11:30:48.249Z,28.06
2019-06-01T11:32:09.326Z,28.04
2019-06-01T11:32:48.330Z,27.85
2019-06-01T11:33:48.339Z,27.68
2019-06-01T11:34:48.384Z,27.64
2019-06-01T11:35:48.421Z,27.57
2019-06-01T11:37:06.271Z,27.47
2019-06-01T11:38:09.490Z,27.58
2019-06-01T11:38:48.512Z,27.63
2019-06-01T11:39:48.521Z,27.41
2019-06-01T11:40:48.588Z,27.18
2019-06-01T11:41:48.592Z,27.07
2019-06-01T11:42:48.643Z,27.16
2019-06-01T11:44:09.669Z,27.18
2019-06-01T11:44:48.697Z,27.19
2019-06-01T11:45:48.709Z,27.05
2019-06-01T11:46:48.743Z,27.13
2019-06-01T11:47:48.788Z,27.05
2019-06-01T11:48:48.816Z,27.11
2019-06-01T11:50:09.849Z,27.04
2019-06-01T11:50:48.876Z,27.08
2019-06-01T11:51:48.892Z,27.05
2019-06-01T11:52:48.919Z,27.13
2019-06-01T11:53:48.959Z,27.10
2019-06-01T11:54:48.983Z,27.05
2019-06-01T11:56:10.052Z,27.18
2019-06-01T11:56:49.050Z,27.19
2019-06-01T11:57:49.071Z,27.28
2019-06-01T11:58:49.095Z,27.18
2019-06-01T11:59:49.132Z,27.16
2019-06-01T12:00:49.161Z,27.01
2019-06-01T12:02:10.213Z,26.96
2019-06-01T12:02:49.211Z,26.86
2019-06-01T12:03:49.249Z,26.93
2019-06-01T12:04:49.284Z,27.05
2019-06-01T12:05:49.308Z,26.96
2019-06-01T12:06:49.425Z,26.93
2019-06-01T12:08:10.384Z,27.01
2019-06-01T12:08:49.405Z,27.08
2019-06-01T12:09:49.417Z,27.05
2019-06-01T12:10:49.452Z,27.16
2019-06-01T12:11:49.506Z,27.00
2019-06-01T12:12:49.515Z,26.88
2019-06-01T12:14:10.573Z,26.79
2019-06-01T12:14:49.573Z,26.60
2019-06-01T12:15:49.596Z,26.86
2019-06-01T12:16:49.644Z,26.79
2019-06-01T12:17:49.654Z,26.67
2019-06-01T12:18:49.696Z,26.74
2019-06-01T12:20:10.755Z,26.85
2019-06-01T12:20:49.742Z,26.83
2019-06-01T12:21:49.783Z,26.89
2019-06-01T12:22:49.816Z,26.83
2019-06-01T12:23:49.844Z,26.91
2019-06-01T12:24:49.865Z,26.98
2019-06-01T12:26:10.909Z,27.05
2019-06-01T12:26:49.923Z,26.97
2019-06-01T12:27:49.956Z,27.01
2019-06-01T12:28:49.987Z,27.07
2019-06-01T12:29:52.575Z,27.10
2019-06-01T12:30:50.054Z,27.01
2019-06-01T12:32:11.089Z,26.76
2019-06-01T12:32:50.101Z,26.79
2019-06-01T12:33:50.137Z,26.76
2019-06-01T12:34:50.176Z,26.96
2019-06-01T12:35:50.188Z,26.96
2019-06-01T12:36:50.236Z,27.05
2019-06-01T12:38:11.258Z,27.08
2019-06-01T12:38:50.270Z,27.01
2019-06-01T12:39:52.930Z,26.91
2019-06-01T12:40:51.325Z,26.91
2019-06-01T12:41:51.722Z,26.83
2019-06-01T12:42:50.390Z,26.79
2019-06-01T12:44:11.444Z,26.74
2019-06-01T12:44:50.467Z,26.83
2019-06-01T12:46:05.491Z,26.88
2019-06-01T12:46:50.516Z,26.92
2019-06-01T12:47:57.569Z,26.85
2019-06-01T12:48:50.568Z,26.76
2019-06-01T12:50:11.660Z,26.86
2019-06-01T12:50:50.962Z,26.93
2019-06-01T12:51:50.656Z,26.97
2019-06-01T12:52:50.692Z,27.03